sensor_id;sensor_type;location;lat;lon;timestamp;P1;durP1;ratioP1;P2;durP2;ratioP2
70455;SDS011;57916;51.996;5.180;2023-08-08T00:02:12;9.02;;;1.98;;
70455;SDS011;57916;51.996;5.180;2023-08-08T00:04:39;11.88;;;2.38;;
70455;SDS011;57916;51.996;5.180;2023-08-08T00:07:06;11.23;;;2.10;;
70455;SDS011;57916;51.996;5.180;2023-08-08T00:09:33;7.03;;;2.20;;
70455;SDS011;57916;51.996;5.180;2023-08-08T00:12:00;12.27;;;2.20;;
70455;SDS011;57916;51.996;5.180;2023-08-08T00:14:27;11.80;;;2.50;;
70455;SDS011;57916;51.996;5.180;2023-08-08T00:16:54;12.63;;;2.10;;
70455;SDS011;57916;51.996;5.180;2023-08-08T00:19:21;7.80;;;2.05;;
70455;SDS011;57916;51.996;5.180;2023-08-08T00:21:48;9.07;;;2.10;;
70455;SDS011;57916;51.996;5.180;2023-08-08T00:24:15;9.67;;;2.13;;
70455;SDS011;57916;51.996;5.180;2023-08-08T00:26:42;12.32;;;2.28;;
70455;SDS011;57916;51.996;5.180;2023-08-08T00:29:09;9.45;;;2.28;;
70455;SDS011;57916;51.996;5.180;2023-08-08T00:31:36;9.07;;;2.25;;
70455;SDS011;57916;51.996;5.180;2023-08-08T00:34:03;7.18;;;2.20;;
70455;SDS011;57916;51.996;5.180;2023-08-08T00:36:30;14.07;;;2.45;;
70455;SDS011;57916;51.996;5.180;2023-08-08T00:38:58;10.50;;;2.30;;
70455;SDS011;57916;51.996;5.180;2023-08-08T00:41:25;12.20;;;2.55;;
70455;SDS011;57916;51.996;5.180;2023-08-08T00:43:52;13.40;;;2.47;;
70455;SDS011;57916;51.996;5.180;2023-08-08T00:46:20;14.52;;;2.60;;
70455;SDS011;57916;51.996;5.180;2023-08-08T00:48:51;15.18;;;2.50;;
70455;SDS011;57916;51.996;5.180;2023-08-08T00:51:19;14.02;;;2.53;;
70455;SDS011;57916;51.996;5.180;2023-08-08T00:53:47;11.18;;;2.50;;
70455;SDS011;57916;51.996;5.180;2023-08-08T00:56:15;8.70;;;2.13;;
70455;SDS011;57916;51.996;5.180;2023-08-08T00:58:43;13.07;;;2.58;;
70455;SDS011;57916;51.996;5.180;2023-08-08T01:01:17;12.98;;;2.33;;
70455;SDS011;57916;51.996;5.180;2023-08-08T01:03:44;14.18;;;2.90;;
70455;SDS011;57916;51.996;5.180;2023-08-08T01:08:55;15.73;;;2.63;;
70455;SDS011;57916;51.996;5.180;2023-08-08T01:11:25;14.13;;;2.50;;
70455;SDS011;57916;51.996;5.180;2023-08-08T01:13:57;11.40;;;2.35;;
70455;SDS011;57916;51.996;5.180;2023-08-08T01:16:24;15.30;;;3.10;;
70455;SDS011;57916;51.996;5.180;2023-08-08T01:18:55;16.27;;;2.65;;
70455;SDS011;57916;51.996;5.180;2023-08-08T01:21:24;12.18;;;2.63;;
70455;SDS011;57916;51.996;5.180;2023-08-08T01:26:38;14.23;;;2.40;;
70455;SDS011;57916;51.996;5.180;2023-08-08T01:29:07;15.63;;;2.60;;
70455;SDS011;57916;51.996;5.180;2023-08-08T01:31:33;14.68;;;3.20;;
70455;SDS011;57916;51.996;5.180;2023-08-08T01:34:00;12.77;;;2.58;;
70455;SDS011;57916;51.996;5.180;2023-08-08T01:36:28;10.10;;;3.00;;
70455;SDS011;57916;51.996;5.180;2023-08-08T01:38:59;12.82;;;2.85;;
70455;SDS011;57916;51.996;5.180;2023-08-08T01:41:31;17.83;;;3.33;;
70455;SDS011;57916;51.996;5.180;2023-08-08T01:44:00;7.70;;;2.75;;
70455;SDS011;57916;51.996;5.180;2023-08-08T01:46:29;7.68;;;2.58;;
70455;SDS011;57916;51.996;5.180;2023-08-08T01:48:57;13.55;;;2.88;;
70455;SDS011;57916;51.996;5.180;2023-08-08T01:51:25;11.60;;;2.55;;
70455;SDS011;57916;51.996;5.180;2023-08-08T01:53:53;13.98;;;3.17;;
70455;SDS011;57916;51.996;5.180;2023-08-08T01:56:20;14.85;;;3.30;;
70455;SDS011;57916;51.996;5.180;2023-08-08T01:58:47;12.13;;;2.90;;
70455;SDS011;57916;51.996;5.180;2023-08-08T02:01:14;11.57;;;2.95;;
70455;SDS011;57916;51.996;5.180;2023-08-08T02:03:41;14.20;;;3.10;;
70455;SDS011;57916;51.996;5.180;2023-08-08T02:06:09;14.48;;;2.70;;
70455;SDS011;57916;51.996;5.180;2023-08-08T02:08:36;15.13;;;3.25;;
70455;SDS011;57916;51.996;5.180;2023-08-08T02:11:04;8.15;;;2.95;;
70455;SDS011;57916;51.996;5.180;2023-08-08T02:13:31;12.88;;;3.25;;
70455;SDS011;57916;51.996;5.180;2023-08-08T02:15:57;13.57;;;3.00;;
70455;SDS011;57916;51.996;5.180;2023-08-08T02:18:25;13.13;;;3.28;;
70455;SDS011;57916;51.996;5.180;2023-08-08T02:20:52;10.52;;;3.15;;
70455;SDS011;57916;51.996;5.180;2023-08-08T02:23:19;11.33;;;3.30;;
70455;SDS011;57916;51.996;5.180;2023-08-08T02:25:47;10.95;;;3.25;;
70455;SDS011;57916;51.996;5.180;2023-08-08T02:28:14;14.80;;;3.25;;
70455;SDS011;57916;51.996;5.180;2023-08-08T02:30:43;14.07;;;3.25;;
70455;SDS011;57916;51.996;5.180;2023-08-08T02:33:10;12.00;;;3.47;;
70455;SDS011;57916;51.996;5.180;2023-08-08T02:35:37;12.80;;;3.30;;
70455;SDS011;57916;51.996;5.180;2023-08-08T02:38:04;13.85;;;3.65;;
70455;SDS011;57916;51.996;5.180;2023-08-08T02:40:31;9.13;;;3.40;;
70455;SDS011;57916;51.996;5.180;2023-08-08T02:43:00;10.45;;;3.70;;
70455;SDS011;57916;51.996;5.180;2023-08-08T02:45:27;12.95;;;3.80;;
70455;SDS011;57916;51.996;5.180;2023-08-08T02:47:54;13.75;;;3.72;;
70455;SDS011;57916;51.996;5.180;2023-08-08T02:50:21;16.27;;;3.85;;
70455;SDS011;57916;51.996;5.180;2023-08-08T02:52:48;15.15;;;4.13;;
70455;SDS011;57916;51.996;5.180;2023-08-08T02:55:17;11.95;;;4.03;;
70455;SDS011;57916;51.996;5.180;2023-08-08T02:57:47;15.63;;;4.50;;
70455;SDS011;57916;51.996;5.180;2023-08-08T03:00:14;16.83;;;4.40;;
70455;SDS011;57916;51.996;5.180;2023-08-08T03:02:45;17.98;;;3.92;;
70455;SDS011;57916;51.996;5.180;2023-08-08T03:05:13;14.02;;;3.95;;
70455;SDS011;57916;51.996;5.180;2023-08-08T03:07:40;14.20;;;4.40;;
70455;SDS011;57916;51.996;5.180;2023-08-08T03:10:08;15.68;;;4.47;;
70455;SDS011;57916;51.996;5.180;2023-08-08T03:12:36;20.48;;;4.63;;
70455;SDS011;57916;51.996;5.180;2023-08-08T03:15:05;18.52;;;5.05;;
70455;SDS011;57916;51.996;5.180;2023-08-08T03:17:32;12.02;;;4.32;;
70455;SDS011;57916;51.996;5.180;2023-08-08T03:20:00;14.10;;;5.30;;
70455;SDS011;57916;51.996;5.180;2023-08-08T03:22:28;17.00;;;4.35;;
70455;SDS011;57916;51.996;5.180;2023-08-08T03:24:55;14.15;;;4.85;;
70455;SDS011;57916;51.996;5.180;2023-08-08T03:27:22;9.35;;;4.43;;
70455;SDS011;57916;51.996;5.180;2023-08-08T03:29:51;17.10;;;4.85;;
70455;SDS011;57916;51.996;5.180;2023-08-08T03:32:18;12.57;;;4.40;;
70455;SDS011;57916;51.996;5.180;2023-08-08T03:34:45;12.75;;;4.60;;
70455;SDS011;57916;51.996;5.180;2023-08-08T03:37:13;15.88;;;4.72;;
70455;SDS011;57916;51.996;5.180;2023-08-08T03:39:40;13.80;;;4.40;;
70455;SDS011;57916;51.996;5.180;2023-08-08T03:42:07;13.38;;;4.75;;
70455;SDS011;57916;51.996;5.180;2023-08-08T03:44:34;20.55;;;5.20;;
70455;SDS011;57916;51.996;5.180;2023-08-08T03:47:02;16.47;;;4.40;;
70455;SDS011;57916;51.996;5.180;2023-08-08T03:49:45;16.70;;;4.93;;
70455;SDS011;57916;51.996;5.180;2023-08-08T03:52:12;21.38;;;5.32;;
70455;SDS011;57916;51.996;5.180;2023-08-08T03:54:39;18.58;;;4.80;;
70455;SDS011;57916;51.996;5.180;2023-08-08T03:57:06;14.25;;;4.60;;
70455;SDS011;57916;51.996;5.180;2023-08-08T03:59:33;18.15;;;4.68;;
70455;SDS011;57916;51.996;5.180;2023-08-08T04:02:01;15.48;;;5.10;;
70455;SDS011;57916;51.996;5.180;2023-08-08T04:04:28;19.80;;;5.13;;
70455;SDS011;57916;51.996;5.180;2023-08-08T04:06:55;19.05;;;5.70;;
70455;SDS011;57916;51.996;5.180;2023-08-08T04:09:23;16.80;;;4.93;;
70455;SDS011;57916;51.996;5.180;2023-08-08T04:11:50;13.90;;;4.70;;
70455;SDS011;57916;51.996;5.180;2023-08-08T04:14:17;20.10;;;5.03;;
70455;SDS011;57916;51.996;5.180;2023-08-08T04:16:44;16.80;;;4.57;;
70455;SDS011;57916;51.996;5.180;2023-08-08T04:19:11;19.23;;;4.60;;
70455;SDS011;57916;51.996;5.180;2023-08-08T04:21:39;13.00;;;4.30;;
70455;SDS011;57916;51.996;5.180;2023-08-08T04:24:05;15.32;;;4.30;;
70455;SDS011;57916;51.996;5.180;2023-08-08T04:26:34;14.55;;;3.90;;
70455;SDS011;57916;51.996;5.180;2023-08-08T04:29:01;9.70;;;3.55;;
70455;SDS011;57916;51.996;5.180;2023-08-08T04:31:29;12.43;;;3.58;;
70455;SDS011;57916;51.996;5.180;2023-08-08T04:33:56;9.10;;;2.88;;
70455;SDS011;57916;51.996;5.180;2023-08-08T04:36:28;9.43;;;2.88;;
70455;SDS011;57916;51.996;5.180;2023-08-08T04:38:55;8.90;;;2.40;;
70455;SDS011;57916;51.996;5.180;2023-08-08T04:41:22;7.03;;;2.43;;
70455;SDS011;57916;51.996;5.180;2023-08-08T04:43:49;5.57;;;2.20;;
70455;SDS011;57916;51.996;5.180;2023-08-08T04:46:16;15.70;;;2.70;;
70455;SDS011;57916;51.996;5.180;2023-08-08T04:48:43;5.88;;;2.20;;
70455;SDS011;57916;51.996;5.180;2023-08-08T04:51:10;6.88;;;2.50;;
70455;SDS011;57916;51.996;5.180;2023-08-08T04:53:37;10.20;;;2.60;;
70455;SDS011;57916;51.996;5.180;2023-08-08T04:56:04;6.53;;;2.33;;
70455;SDS011;57916;51.996;5.180;2023-08-08T04:58:31;11.40;;;2.30;;
70455;SDS011;57916;51.996;5.180;2023-08-08T05:00:58;4.72;;;2.10;;
70455;SDS011;57916;51.996;5.180;2023-08-08T05:03:25;5.10;;;1.60;;
70455;SDS011;57916;51.996;5.180;2023-08-08T05:05:53;4.25;;;1.75;;
70455;SDS011;57916;51.996;5.180;2023-08-08T05:08:20;5.00;;;1.60;;
70455;SDS011;57916;51.996;5.180;2023-08-08T05:10:47;5.45;;;1.95;;
70455;SDS011;57916;51.996;5.180;2023-08-08T05:13:14;7.30;;;1.63;;
70455;SDS011;57916;51.996;5.180;2023-08-08T05:15:41;5.32;;;1.38;;
70455;SDS011;57916;51.996;5.180;2023-08-08T05:18:08;4.90;;;1.40;;
70455;SDS011;57916;51.996;5.180;2023-08-08T05:20:35;16.70;;;2.40;;
70455;SDS011;57916;51.996;5.180;2023-08-08T05:23:02;7.57;;;1.60;;
70455;SDS011;57916;51.996;5.180;2023-08-08T05:25:29;1.83;;;1.20;;
70455;SDS011;57916;51.996;5.180;2023-08-08T05:27:56;4.32;;;1.20;;
70455;SDS011;57916;51.996;5.180;2023-08-08T05:30:23;4.05;;;1.15;;
70455;SDS011;57916;51.996;5.180;2023-08-08T05:32:50;4.32;;;1.40;;
70455;SDS011;57916;51.996;5.180;2023-08-08T05:35:17;3.95;;;0.98;;
70455;SDS011;57916;51.996;5.180;2023-08-08T05:37:44;3.50;;;1.10;;
70455;SDS011;57916;51.996;5.180;2023-08-08T05:40:11;4.93;;;1.13;;
70455;SDS011;57916;51.996;5.180;2023-08-08T05:42:38;2.17;;;1.10;;
70455;SDS011;57916;51.996;5.180;2023-08-08T05:45:06;6.20;;;1.08;;
70455;SDS011;57916;51.996;5.180;2023-08-08T05:47:33;3.55;;;0.95;;
70455;SDS011;57916;51.996;5.180;2023-08-08T05:50:00;2.45;;;0.95;;
70455;SDS011;57916;51.996;5.180;2023-08-08T05:52:27;4.25;;;1.08;;
70455;SDS011;57916;51.996;5.180;2023-08-08T05:54:55;1.48;;;0.80;;
70455;SDS011;57916;51.996;5.180;2023-08-08T05:57:22;3.00;;;1.10;;
70455;SDS011;57916;51.996;5.180;2023-08-08T05:59:49;3.63;;;1.00;;
70455;SDS011;57916;51.996;5.180;2023-08-08T06:02:16;2.13;;;1.10;;
70455;SDS011;57916;51.996;5.180;2023-08-08T06:04:43;4.53;;;0.90;;
70455;SDS011;57916;51.996;5.180;2023-08-08T06:07:11;3.65;;;1.00;;
70455;SDS011;57916;51.996;5.180;2023-08-08T06:09:38;3.17;;;1.02;;
70455;SDS011;57916;51.996;5.180;2023-08-08T06:12:06;4.43;;;1.00;;
70455;SDS011;57916;51.996;5.180;2023-08-08T06:14:33;2.70;;;0.70;;
70455;SDS011;57916;51.996;5.180;2023-08-08T06:17:01;3.83;;;1.10;;
70455;SDS011;57916;51.996;5.180;2023-08-08T06:19:28;1.83;;;0.85;;
70455;SDS011;57916;51.996;5.180;2023-08-08T06:21:54;7.30;;;1.70;;
70455;SDS011;57916;51.996;5.180;2023-08-08T06:24:21;2.25;;;0.80;;
70455;SDS011;57916;51.996;5.180;2023-08-08T06:26:48;4.05;;;0.90;;
70455;SDS011;57916;51.996;5.180;2023-08-08T06:29:15;2.60;;;0.70;;
70455;SDS011;57916;51.996;5.180;2023-08-08T06:31:43;4.70;;;0.90;;
70455;SDS011;57916;51.996;5.180;2023-08-08T06:34:10;2.90;;;1.00;;
70455;SDS011;57916;51.996;5.180;2023-08-08T06:36:36;3.88;;;0.80;;
70455;SDS011;57916;51.996;5.180;2023-08-08T06:39:04;5.57;;;0.73;;
70455;SDS011;57916;51.996;5.180;2023-08-08T06:41:32;3.90;;;0.80;;
70455;SDS011;57916;51.996;5.180;2023-08-08T06:43:59;2.25;;;0.90;;
70455;SDS011;57916;51.996;5.180;2023-08-08T06:46:26;5.40;;;0.90;;
70455;SDS011;57916;51.996;5.180;2023-08-08T06:48:53;6.28;;;0.80;;
70455;SDS011;57916;51.996;5.180;2023-08-08T06:51:23;5.03;;;0.70;;
70455;SDS011;57916;51.996;5.180;2023-08-08T06:53:51;6.45;;;1.00;;
70455;SDS011;57916;51.996;5.180;2023-08-08T06:56:19;2.92;;;0.75;;
70455;SDS011;57916;51.996;5.180;2023-08-08T06:58:46;1.55;;;0.70;;
70455;SDS011;57916;51.996;5.180;2023-08-08T07:01:12;4.25;;;0.95;;
70455;SDS011;57916;51.996;5.180;2023-08-08T07:03:40;4.38;;;0.80;;
70455;SDS011;57916;51.996;5.180;2023-08-08T07:06:07;3.00;;;0.73;;
70455;SDS011;57916;51.996;5.180;2023-08-08T07:08:34;3.22;;;0.68;;
70455;SDS011;57916;51.996;5.180;2023-08-08T07:11:02;2.33;;;0.70;;
70455;SDS011;57916;51.996;5.180;2023-08-08T07:13:29;4.32;;;0.60;;
70455;SDS011;57916;51.996;5.180;2023-08-08T07:15:56;3.05;;;0.60;;
70455;SDS011;57916;51.996;5.180;2023-08-08T07:18:23;2.45;;;0.60;;
70455;SDS011;57916;51.996;5.180;2023-08-08T07:20:50;2.30;;;0.75;;
70455;SDS011;57916;51.996;5.180;2023-08-08T07:23:16;3.07;;;0.70;;
70455;SDS011;57916;51.996;5.180;2023-08-08T07:25:47;2.17;;;0.63;;
70455;SDS011;57916;51.996;5.180;2023-08-08T07:28:16;2.00;;;0.50;;
70455;SDS011;57916;51.996;5.180;2023-08-08T07:30:44;4.88;;;0.75;;
70455;SDS011;57916;51.996;5.180;2023-08-08T07:33:11;2.72;;;0.55;;
70455;SDS011;57916;51.996;5.180;2023-08-08T07:35:38;2.97;;;0.68;;
70455;SDS011;57916;51.996;5.180;2023-08-08T07:38:05;5.18;;;0.70;;
70455;SDS011;57916;51.996;5.180;2023-08-08T07:40:32;4.32;;;0.70;;
70455;SDS011;57916;51.996;5.180;2023-08-08T07:42:59;3.05;;;0.80;;
70455;SDS011;57916;51.996;5.180;2023-08-08T07:45:26;9.65;;;0.90;;
70455;SDS011;57916;51.996;5.180;2023-08-08T07:47:53;2.90;;;0.70;;
70455;SDS011;57916;51.996;5.180;2023-08-08T07:50:20;1.77;;;0.45;;
70455;SDS011;57916;51.996;5.180;2023-08-08T07:52:46;6.65;;;0.70;;
70455;SDS011;57916;51.996;5.180;2023-08-08T07:55:13;1.55;;;0.77;;
70455;SDS011;57916;51.996;5.180;2023-08-08T07:57:40;1.20;;;0.50;;
70455;SDS011;57916;51.996;5.180;2023-08-08T08:00:08;1.35;;;0.40;;
70455;SDS011;57916;51.996;5.180;2023-08-08T08:02:39;3.47;;;0.70;;
70455;SDS011;57916;51.996;5.180;2023-08-08T08:05:08;3.20;;;0.60;;
70455;SDS011;57916;51.996;5.180;2023-08-08T08:07:36;1.88;;;0.40;;
70455;SDS011;57916;51.996;5.180;2023-08-08T08:10:05;1.80;;;0.50;;
70455;SDS011;57916;51.996;5.180;2023-08-08T08:12:35;3.10;;;0.52;;
70455;SDS011;57916;51.996;5.180;2023-08-08T08:15:03;2.60;;;0.50;;
70455;SDS011;57916;51.996;5.180;2023-08-08T08:17:31;0.75;;;0.40;;
70455;SDS011;57916;51.996;5.180;2023-08-08T08:19:58;2.42;;;0.50;;
70455;SDS011;57916;51.996;5.180;2023-08-08T08:22:25;1.50;;;0.30;;
70455;SDS011;57916;51.996;5.180;2023-08-08T08:24:52;11.07;;;0.60;;
70455;SDS011;57916;51.996;5.180;2023-08-08T08:27:19;2.50;;;0.50;;
70455;SDS011;57916;51.996;5.180;2023-08-08T08:29:46;3.30;;;0.50;;
70455;SDS011;57916;51.996;5.180;2023-08-08T08:32:13;4.93;;;1.70;;
70455;SDS011;57916;51.996;5.180;2023-08-08T08:34:40;5.18;;;0.60;;
70455;SDS011;57916;51.996;5.180;2023-08-08T08:37:07;3.53;;;0.60;;
70455;SDS011;57916;51.996;5.180;2023-08-08T08:39:34;3.50;;;0.50;;
70455;SDS011;57916;51.996;5.180;2023-08-08T08:42:01;0.82;;;0.40;;
70455;SDS011;57916;51.996;5.180;2023-08-08T08:44:31;2.15;;;0.47;;
70455;SDS011;57916;51.996;5.180;2023-08-08T08:47:01;1.10;;;0.40;;
70455;SDS011;57916;51.996;5.180;2023-08-08T08:49:29;0.57;;;0.50;;
70455;SDS011;57916;51.996;5.180;2023-08-08T08:51:57;2.30;;;0.40;;
70455;SDS011;57916;51.996;5.180;2023-08-08T08:54:28;4.05;;;0.50;;
70455;SDS011;57916;51.996;5.180;2023-08-08T08:56:56;1.27;;;0.30;;
70455;SDS011;57916;51.996;5.180;2023-08-08T08:59:24;4.82;;;0.45;;
70455;SDS011;57916;51.996;5.180;2023-08-08T09:01:51;1.80;;;0.40;;
70455;SDS011;57916;51.996;5.180;2023-08-08T09:04:20;0.40;;;0.40;;
70455;SDS011;57916;51.996;5.180;2023-08-08T09:06:50;1.23;;;0.47;;
70455;SDS011;57916;51.996;5.180;2023-08-08T09:09:18;1.90;;;0.50;;
70455;SDS011;57916;51.996;5.180;2023-08-08T09:11:48;0.98;;;0.30;;
70455;SDS011;57916;51.996;5.180;2023-08-08T09:14:26;0.73;;;0.20;;
70455;SDS011;57916;51.996;5.180;2023-08-08T09:16:53;0.20;;;0.20;;
70455;SDS011;57916;51.996;5.180;2023-08-08T09:19:21;4.15;;;0.40;;
70455;SDS011;57916;51.996;5.180;2023-08-08T09:21:48;0.90;;;0.30;;
70455;SDS011;57916;51.996;5.180;2023-08-08T09:24:16;1.00;;;0.35;;
70455;SDS011;57916;51.996;5.180;2023-08-08T09:26:43;0.77;;;0.38;;
70455;SDS011;57916;51.996;5.180;2023-08-08T09:29:12;0.68;;;0.40;;
70455;SDS011;57916;51.996;5.180;2023-08-08T09:31:40;3.70;;;0.50;;
70455;SDS011;57916;51.996;5.180;2023-08-08T09:34:08;0.93;;;0.50;;
70455;SDS011;57916;51.996;5.180;2023-08-08T09:36:35;3.00;;;0.50;;
70455;SDS011;57916;51.996;5.180;2023-08-08T09:39:03;1.48;;;0.40;;
70455;SDS011;57916;51.996;5.180;2023-08-08T09:41:31;0.90;;;0.60;;
70455;SDS011;57916;51.996;5.180;2023-08-08T09:43:58;0.65;;;0.50;;
70455;SDS011;57916;51.996;5.180;2023-08-08T09:46:30;0.80;;;0.40;;
70455;SDS011;57916;51.996;5.180;2023-08-08T09:48:58;7.10;;;0.47;;
70455;SDS011;57916;51.996;5.180;2023-08-08T09:51:26;1.50;;;0.40;;
70455;SDS011;57916;51.996;5.180;2023-08-08T09:53:53;1.63;;;0.60;;
70455;SDS011;57916;51.996;5.180;2023-08-08T09:56:25;2.88;;;0.60;;
70455;SDS011;57916;51.996;5.180;2023-08-08T09:58:52;2.75;;;0.43;;
70455;SDS011;57916;51.996;5.180;2023-08-08T10:01:20;5.57;;;0.70;;
70455;SDS011;57916;51.996;5.180;2023-08-08T10:03:48;1.73;;;0.53;;
70455;SDS011;57916;51.996;5.180;2023-08-08T10:06:17;1.20;;;0.50;;
70455;SDS011;57916;51.996;5.180;2023-08-08T10:08:45;1.10;;;0.50;;
70455;SDS011;57916;51.996;5.180;2023-08-08T10:11:12;5.30;;;0.55;;
70455;SDS011;57916;51.996;5.180;2023-08-08T10:13:47;3.03;;;0.52;;
70455;SDS011;57916;51.996;5.180;2023-08-08T10:16:16;0.80;;;0.50;;
70455;SDS011;57916;51.996;5.180;2023-08-08T10:18:45;2.40;;;0.40;;
70455;SDS011;57916;51.996;5.180;2023-08-08T10:21:22;2.60;;;0.40;;
70455;SDS011;57916;51.996;5.180;2023-08-08T10:24:00;1.45;;;0.40;;
70455;SDS011;57916;51.996;5.180;2023-08-08T10:29:20;1.30;;;0.40;;
70455;SDS011;57916;51.996;5.180;2023-08-08T10:31:51;1.60;;;0.50;;
70455;SDS011;57916;51.996;5.180;2023-08-08T10:37:13;1.17;;;0.65;;
70455;SDS011;57916;51.996;5.180;2023-08-08T10:39:52;0.60;;;0.60;;
70455;SDS011;57916;51.996;5.180;2023-08-08T10:42:20;0.70;;;0.60;;
70455;SDS011;57916;51.996;5.180;2023-08-08T10:44:59;1.50;;;0.85;;
70455;SDS011;57916;51.996;5.180;2023-08-08T10:47:32;0.63;;;0.55;;
70455;SDS011;57916;51.996;5.180;2023-08-08T10:52:38;3.10;;;0.60;;
70455;SDS011;57916;51.996;5.180;2023-08-08T10:57:53;1.50;;;0.50;;
70455;SDS011;57916;51.996;5.180;2023-08-08T11:00:25;1.85;;;0.50;;
70455;SDS011;57916;51.996;5.180;2023-08-08T11:02:56;2.85;;;0.60;;
70455;SDS011;57916;51.996;5.180;2023-08-08T11:05:24;1.13;;;0.80;;
70455;SDS011;57916;51.996;5.180;2023-08-08T11:07:52;2.35;;;0.70;;
70455;SDS011;57916;51.996;5.180;2023-08-08T11:10:20;2.80;;;0.80;;
70455;SDS011;57916;51.996;5.180;2023-08-08T11:12:53;1.00;;;0.50;;
70455;SDS011;57916;51.996;5.180;2023-08-08T11:15:25;1.88;;;0.68;;
70455;SDS011;57916;51.996;5.180;2023-08-08T11:17:54;3.03;;;0.77;;
70455;SDS011;57916;51.996;5.180;2023-08-08T11:20:23;3.90;;;0.60;;
70455;SDS011;57916;51.996;5.180;2023-08-08T11:22:51;2.00;;;0.50;;
70455;SDS011;57916;51.996;5.180;2023-08-08T11:25:22;2.28;;;0.60;;
70455;SDS011;57916;51.996;5.180;2023-08-08T11:27:52;4.30;;;0.68;;
70455;SDS011;57916;51.996;5.180;2023-08-08T11:30:21;3.13;;;0.60;;
70455;SDS011;57916;51.996;5.180;2023-08-08T11:32:49;1.92;;;0.68;;
70455;SDS011;57916;51.996;5.180;2023-08-08T11:35:21;2.80;;;0.60;;
70455;SDS011;57916;51.996;5.180;2023-08-08T11:37:49;1.23;;;0.68;;
70455;SDS011;57916;51.996;5.180;2023-08-08T11:40:20;8.45;;;0.80;;
70455;SDS011;57916;51.996;5.180;2023-08-08T11:42:50;2.92;;;0.73;;
70455;SDS011;57916;51.996;5.180;2023-08-08T11:45:18;7.32;;;1.60;;
70455;SDS011;57916;51.996;5.180;2023-08-08T11:47:49;1.73;;;0.60;;
70455;SDS011;57916;51.996;5.180;2023-08-08T11:50:18;0.85;;;0.60;;
70455;SDS011;57916;51.996;5.180;2023-08-08T11:52:46;1.20;;;0.50;;
70455;SDS011;57916;51.996;5.180;2023-08-08T11:55:13;1.57;;;0.60;;
70455;SDS011;57916;51.996;5.180;2023-08-08T11:57:40;1.90;;;0.65;;
70455;SDS011;57916;51.996;5.180;2023-08-08T12:00:08;2.07;;;0.53;;
70455;SDS011;57916;51.996;5.180;2023-08-08T12:02:39;1.67;;;0.70;;
70455;SDS011;57916;51.996;5.180;2023-08-08T12:07:40;1.20;;;0.70;;
70455;SDS011;57916;51.996;5.180;2023-08-08T12:10:15;1.57;;;0.70;;
70455;SDS011;57916;51.996;5.180;2023-08-08T12:12:44;1.33;;;0.50;;
70455;SDS011;57916;51.996;5.180;2023-08-08T12:15:12;2.60;;;0.60;;
70455;SDS011;57916;51.996;5.180;2023-08-08T12:17:42;1.77;;;0.60;;
70455;SDS011;57916;51.996;5.180;2023-08-08T12:20:09;0.85;;;0.50;;
70455;SDS011;57916;51.996;5.180;2023-08-08T12:22:37;2.70;;;0.50;;
70455;SDS011;57916;51.996;5.180;2023-08-08T12:25:04;2.08;;;0.50;;
70455;SDS011;57916;51.996;5.180;2023-08-08T12:27:31;2.88;;;0.52;;
70455;SDS011;57916;51.996;5.180;2023-08-08T12:29:58;1.20;;;0.50;;
70455;SDS011;57916;51.996;5.180;2023-08-08T12:32:26;1.97;;;0.40;;
70455;SDS011;57916;51.996;5.180;2023-08-08T12:34:55;1.60;;;0.50;;
70455;SDS011;57916;51.996;5.180;2023-08-08T12:37:23;1.88;;;0.50;;
70455;SDS011;57916;51.996;5.180;2023-08-08T12:39:50;2.88;;;0.68;;
70455;SDS011;57916;51.996;5.180;2023-08-08T12:42:17;3.60;;;0.88;;
70455;SDS011;57916;51.996;5.180;2023-08-08T12:44:45;1.85;;;0.45;;
70455;SDS011;57916;51.996;5.180;2023-08-08T12:47:13;4.82;;;0.60;;
70455;SDS011;57916;51.996;5.180;2023-08-08T12:49:41;5.13;;;0.70;;
70455;SDS011;57916;51.996;5.180;2023-08-08T12:52:08;1.90;;;0.50;;
70455;SDS011;57916;51.996;5.180;2023-08-08T12:54:35;1.30;;;0.60;;
70455;SDS011;57916;51.996;5.180;2023-08-08T12:57:03;1.00;;;0.45;;
70455;SDS011;57916;51.996;5.180;2023-08-08T12:59:30;0.70;;;0.60;;
70455;SDS011;57916;51.996;5.180;2023-08-08T13:01:57;4.53;;;0.70;;
70455;SDS011;57916;51.996;5.180;2023-08-08T13:04:25;1.90;;;0.70;;
70455;SDS011;57916;51.996;5.180;2023-08-08T13:06:52;1.83;;;0.57;;
70455;SDS011;57916;51.996;5.180;2023-08-08T13:09:19;1.80;;;0.50;;
70455;SDS011;57916;51.996;5.180;2023-08-08T13:11:46;2.70;;;0.60;;
70455;SDS011;57916;51.996;5.180;2023-08-08T13:14:13;0.40;;;0.40;;
70455;SDS011;57916;51.996;5.180;2023-08-08T13:16:40;3.10;;;0.50;;
70455;SDS011;57916;51.996;5.180;2023-08-08T13:19:07;3.28;;;0.50;;
70455;SDS011;57916;51.996;5.180;2023-08-08T13:21:34;1.45;;;0.60;;
70455;SDS011;57916;51.996;5.180;2023-08-08T13:24:01;1.13;;;0.60;;
70455;SDS011;57916;51.996;5.180;2023-08-08T13:26:28;3.10;;;0.65;;
70455;SDS011;57916;51.996;5.180;2023-08-08T13:28:55;1.45;;;0.70;;
70455;SDS011;57916;51.996;5.180;2023-08-08T13:31:22;2.10;;;0.70;;
70455;SDS011;57916;51.996;5.180;2023-08-08T13:33:49;2.72;;;0.80;;
70455;SDS011;57916;51.996;5.180;2023-08-08T13:36:16;1.70;;;0.90;;
70455;SDS011;57916;51.996;5.180;2023-08-08T13:38:43;1.20;;;1.10;;
70455;SDS011;57916;51.996;5.180;2023-08-08T13:41:10;1.00;;;0.73;;
70455;SDS011;57916;51.996;5.180;2023-08-08T13:43:37;0.53;;;0.50;;
70455;SDS011;57916;51.996;5.180;2023-08-08T13:46:04;1.20;;;0.60;;
70455;SDS011;57916;51.996;5.180;2023-08-08T13:48:34;2.22;;;0.60;;
70455;SDS011;57916;51.996;5.180;2023-08-08T13:51:02;2.30;;;0.55;;
70455;SDS011;57916;51.996;5.180;2023-08-08T13:53:29;3.45;;;0.70;;
70455;SDS011;57916;51.996;5.180;2023-08-08T13:55:56;4.00;;;0.60;;
70455;SDS011;57916;51.996;5.180;2023-08-08T13:58:23;3.03;;;0.60;;
70455;SDS011;57916;51.996;5.180;2023-08-08T14:00:50;1.47;;;0.60;;
70455;SDS011;57916;51.996;5.180;2023-08-08T14:03:18;0.60;;;0.60;;
70455;SDS011;57916;51.996;5.180;2023-08-08T14:05:45;1.77;;;0.60;;
70455;SDS011;57916;51.996;5.180;2023-08-08T14:08:12;1.40;;;0.57;;
70455;SDS011;57916;51.996;5.180;2023-08-08T14:10:39;1.90;;;0.50;;
70455;SDS011;57916;51.996;5.180;2023-08-08T14:13:06;1.27;;;0.80;;
70455;SDS011;57916;51.996;5.180;2023-08-08T14:15:33;1.38;;;0.70;;
70455;SDS011;57916;51.996;5.180;2023-08-08T14:18:05;2.22;;;0.60;;
70455;SDS011;57916;51.996;5.180;2023-08-08T14:20:33;3.78;;;0.95;;
70455;SDS011;57916;51.996;5.180;2023-08-08T14:23:00;3.50;;;0.70;;
70455;SDS011;57916;51.996;5.180;2023-08-08T14:25:27;1.70;;;0.60;;
70455;SDS011;57916;51.996;5.180;2023-08-08T14:27:56;2.83;;;0.63;;
70455;SDS011;57916;51.996;5.180;2023-08-08T14:30:23;3.83;;;0.90;;
70455;SDS011;57916;51.996;5.180;2023-08-08T14:32:53;2.78;;;0.68;;
70455;SDS011;57916;51.996;5.180;2023-08-08T14:35:21;0.75;;;0.68;;
70455;SDS011;57916;51.996;5.180;2023-08-08T14:37:48;2.05;;;0.82;;
70455;SDS011;57916;51.996;5.180;2023-08-08T14:40:15;3.65;;;0.80;;
70455;SDS011;57916;51.996;5.180;2023-08-08T14:42:42;1.98;;;0.73;;
70455;SDS011;57916;51.996;5.180;2023-08-08T14:45:09;1.40;;;0.90;;
70455;SDS011;57916;51.996;5.180;2023-08-08T14:47:36;1.95;;;0.80;;
70455;SDS011;57916;51.996;5.180;2023-08-08T14:50:03;1.48;;;0.77;;
70455;SDS011;57916;51.996;5.180;2023-08-08T14:52:31;3.35;;;0.80;;
70455;SDS011;57916;51.996;5.180;2023-08-08T14:54:58;1.77;;;0.80;;
70455;SDS011;57916;51.996;5.180;2023-08-08T14:57:25;4.13;;;1.10;;
70455;SDS011;57916;51.996;5.180;2023-08-08T14:59:52;3.67;;;0.88;;
70455;SDS011;57916;51.996;5.180;2023-08-08T15:02:19;2.92;;;0.73;;
70455;SDS011;57916;51.996;5.180;2023-08-08T15:04:46;1.27;;;0.90;;
70455;SDS011;57916;51.996;5.180;2023-08-08T15:07:15;2.22;;;0.90;;